sensor_id;sensor_type;location;lat;lon;timestamp;P1;durP1;ratioP1;P2;durP2;ratioP2
3653;SDS011;70277;54.302;10.064;2023-07-22T00:00:29;13.52;;;7.75;;
3653;SDS011;70277;54.302;10.064;2023-07-22T00:02:57;11.80;;;8.05;;
3653;SDS011;70277;54.302;10.064;2023-07-22T00:05:24;10.85;;;7.45;;
3653;SDS011;70277;54.302;10.064;2023-07-22T00:07:51;16.55;;;8.30;;
3653;SDS011;70277;54.302;10.064;2023-07-22T00:10:18;12.70;;;8.32;;
3653;SDS011;70277;54.302;10.064;2023-07-22T00:12:45;10.35;;;7.20;;
3653;SDS011;70277;54.302;10.064;2023-07-22T00:15:12;11.88;;;7.30;;
3653;SDS011;70277;54.302;10.064;2023-07-22T00:17:39;11.85;;;7.82;;
3653;SDS011;70277;54.302;10.064;2023-07-22T00:20:06;14.20;;;7.93;;
3653;SDS011;70277;54.302;10.064;2023-07-22T00:22:39;12.52;;;7.85;;
3653;SDS011;70277;54.302;10.064;2023-07-22T00:25:07;10.30;;;7.00;;
3653;SDS011;70277;54.302;10.064;2023-07-22T00:27:40;10.52;;;7.25;;
3653;SDS011;70277;54.302;10.064;2023-07-22T00:30:08;10.50;;;7.65;;
3653;SDS011;70277;54.302;10.064;2023-07-22T00:32:35;11.18;;;7.05;;
3653;SDS011;70277;54.302;10.064;2023-07-22T00:35:05;9.38;;;6.78;;
3653;SDS011;70277;54.302;10.064;2023-07-22T00:37:32;8.98;;;6.68;;
3653;SDS011;70277;54.302;10.064;2023-07-22T00:40:00;8.80;;;6.95;;
3653;SDS011;70277;54.302;10.064;2023-07-22T00:42:32;10.80;;;7.07;;
3653;SDS011;70277;54.302;10.064;2023-07-22T00:44:59;12.82;;;7.22;;
3653;SDS011;70277;54.302;10.064;2023-07-22T00:47:25;8.85;;;6.28;;
3653;SDS011;70277;54.302;10.064;2023-07-22T00:49:52;8.27;;;6.15;;
3653;SDS011;70277;54.302;10.064;2023-07-22T00:52:18;10.10;;;6.47;;
3653;SDS011;70277;54.302;10.064;2023-07-22T00:54:45;9.95;;;6.20;;
3653;SDS011;70277;54.302;10.064;2023-07-22T00:57:12;8.93;;;6.75;;
3653;SDS011;70277;54.302;10.064;2023-07-22T00:59:39;10.02;;;6.30;;
3653;SDS011;70277;54.302;10.064;2023-07-22T01:02:06;9.88;;;6.28;;
3653;SDS011;70277;54.302;10.064;2023-07-22T01:04:33;10.95;;;5.32;;
3653;SDS011;70277;54.302;10.064;2023-07-22T01:07:01;11.02;;;4.57;;
3653;SDS011;70277;54.302;10.064;2023-07-22T01:09:39;8.10;;;4.35;;
3653;SDS011;70277;54.302;10.064;2023-07-22T01:12:07;9.90;;;5.00;;
3653;SDS011;70277;54.302;10.064;2023-07-22T01:14:35;7.70;;;3.85;;
3653;SDS011;70277;54.302;10.064;2023-07-22T01:17:03;6.18;;;4.10;;
3653;SDS011;70277;54.302;10.064;2023-07-22T01:19:31;4.53;;;3.53;;
3653;SDS011;70277;54.302;10.064;2023-07-22T01:22:02;7.50;;;4.03;;
3653;SDS011;70277;54.302;10.064;2023-07-22T01:24:31;10.38;;;3.60;;
3653;SDS011;70277;54.302;10.064;2023-07-22T01:26:58;4.82;;;3.60;;
3653;SDS011;70277;54.302;10.064;2023-07-22T01:29:24;7.22;;;3.83;;
3653;SDS011;70277;54.302;10.064;2023-07-22T01:31:52;10.50;;;3.75;;
3653;SDS011;70277;54.302;10.064;2023-07-22T01:34:20;7.10;;;3.42;;
3653;SDS011;70277;54.302;10.064;2023-07-22T01:36:48;7.28;;;3.40;;
3653;SDS011;70277;54.302;10.064;2023-07-22T01:39:15;14.60;;;3.85;;
3653;SDS011;70277;54.302;10.064;2023-07-22T01:41:43;6.93;;;3.50;;
3653;SDS011;70277;54.302;10.064;2023-07-22T01:44:09;7.63;;;4.13;;
3653;SDS011;70277;54.302;10.064;2023-07-22T01:46:37;14.95;;;4.30;;
3653;SDS011;70277;54.302;10.064;2023-07-22T01:49:04;9.00;;;3.40;;
3653;SDS011;70277;54.302;10.064;2023-07-22T01:51:34;4.60;;;3.42;;
3653;SDS011;70277;54.302;10.064;2023-07-22T01:54:01;6.22;;;3.67;;
3653;SDS011;70277;54.302;10.064;2023-07-22T01:56:27;8.68;;;3.80;;
3653;SDS011;70277;54.302;10.064;2023-07-22T01:58:54;11.10;;;3.90;;
3653;SDS011;70277;54.302;10.064;2023-07-22T02:01:21;12.13;;;3.60;;
3653;SDS011;70277;54.302;10.064;2023-07-22T02:03:47;3.53;;;2.97;;
3653;SDS011;70277;54.302;10.064;2023-07-22T02:06:14;6.35;;;3.08;;
3653;SDS011;70277;54.302;10.064;2023-07-22T02:08:41;4.43;;;2.83;;
3653;SDS011;70277;54.302;10.064;2023-07-22T02:11:08;6.93;;;2.90;;
3653;SDS011;70277;54.302;10.064;2023-07-22T02:13:35;5.10;;;3.20;;
3653;SDS011;70277;54.302;10.064;2023-07-22T02:16:02;5.85;;;3.20;;
3653;SDS011;70277;54.302;10.064;2023-07-22T02:18:29;7.20;;;3.33;;
3653;SDS011;70277;54.302;10.064;2023-07-22T02:20:56;3.85;;;3.03;;
3653;SDS011;70277;54.302;10.064;2023-07-22T02:23:23;4.05;;;2.67;;
3653;SDS011;70277;54.302;10.064;2023-07-22T02:25:51;3.80;;;3.08;;
3653;SDS011;70277;54.302;10.064;2023-07-22T02:28:18;7.32;;;2.97;;
3653;SDS011;70277;54.302;10.064;2023-07-22T02:30:50;11.43;;;3.00;;
3653;SDS011;70277;54.302;10.064;2023-07-22T02:33:21;3.33;;;2.78;;
3653;SDS011;70277;54.302;10.064;2023-07-22T02:35:48;7.00;;;3.10;;
3653;SDS011;70277;54.302;10.064;2023-07-22T02:38:15;5.80;;;2.92;;
3653;SDS011;70277;54.302;10.064;2023-07-22T02:40:42;10.93;;;3.17;;
3653;SDS011;70277;54.302;10.064;2023-07-22T02:43:08;3.90;;;2.85;;
3653;SDS011;70277;54.302;10.064;2023-07-22T02:45:36;12.10;;;2.70;;
3653;SDS011;70277;54.302;10.064;2023-07-22T02:48:03;5.18;;;2.83;;
3653;SDS011;70277;54.302;10.064;2023-07-22T02:50:30;3.88;;;3.33;;
3653;SDS011;70277;54.302;10.064;2023-07-22T02:52:57;6.50;;;3.00;;
3653;SDS011;70277;54.302;10.064;2023-07-22T02:55:23;4.47;;;2.83;;
3653;SDS011;70277;54.302;10.064;2023-07-22T02:57:50;8.77;;;3.03;;
3653;SDS011;70277;54.302;10.064;2023-07-22T03:00:17;3.70;;;2.65;;
3653;SDS011;70277;54.302;10.064;2023-07-22T03:02:54;5.85;;;2.88;;
3653;SDS011;70277;54.302;10.064;2023-07-22T03:05:27;10.30;;;2.70;;
3653;SDS011;70277;54.302;10.064;2023-07-22T03:07:54;3.25;;;2.45;;
3653;SDS011;70277;54.302;10.064;2023-07-22T03:10:22;6.05;;;2.75;;
3653;SDS011;70277;54.302;10.064;2023-07-22T03:12:48;5.82;;;2.90;;
3653;SDS011;70277;54.302;10.064;2023-07-22T03:15:15;3.67;;;2.58;;
3653;SDS011;70277;54.302;10.064;2023-07-22T03:17:41;5.00;;;2.72;;
3653;SDS011;70277;54.302;10.064;2023-07-22T03:20:08;4.85;;;2.75;;
3653;SDS011;70277;54.302;10.064;2023-07-22T03:22:40;7.38;;;2.47;;
3653;SDS011;70277;54.302;10.064;2023-07-22T03:25:10;7.20;;;2.60;;
3653;SDS011;70277;54.302;10.064;2023-07-22T03:27:38;3.97;;;2.60;;
3653;SDS011;70277;54.302;10.064;2023-07-22T03:30:05;4.65;;;2.63;;
3653;SDS011;70277;54.302;10.064;2023-07-22T03:32:34;8.57;;;3.00;;
3653;SDS011;70277;54.302;10.064;2023-07-22T03:35:01;4.30;;;2.63;;
3653;SDS011;70277;54.302;10.064;2023-07-22T03:37:30;5.72;;;2.85;;
3653;SDS011;70277;54.302;10.064;2023-07-22T03:39:57;3.60;;;2.50;;
3653;SDS011;70277;54.302;10.064;2023-07-22T03:42:24;5.18;;;2.42;;
3653;SDS011;70277;54.302;10.064;2023-07-22T03:44:50;7.53;;;2.85;;
3653;SDS011;70277;54.302;10.064;2023-07-22T03:47:17;3.35;;;2.25;;
3653;SDS011;70277;54.302;10.064;2023-07-22T03:49:43;4.45;;;2.35;;
3653;SDS011;70277;54.302;10.064;2023-07-22T03:52:10;4.75;;;2.78;;
3653;SDS011;70277;54.302;10.064;2023-07-22T03:54:40;6.53;;;2.80;;
3653;SDS011;70277;54.302;10.064;2023-07-22T03:57:06;5.05;;;2.80;;
3653;SDS011;70277;54.302;10.064;2023-07-22T03:59:33;3.15;;;2.40;;
3653;SDS011;70277;54.302;10.064;2023-07-22T04:02:00;4.30;;;2.60;;
3653;SDS011;70277;54.302;10.064;2023-07-22T04:04:26;5.30;;;2.55;;
3653;SDS011;70277;54.302;10.064;2023-07-22T04:06:52;6.45;;;2.60;;
3653;SDS011;70277;54.302;10.064;2023-07-22T04:09:19;5.78;;;2.90;;
3653;SDS011;70277;54.302;10.064;2023-07-22T04:11:45;5.28;;;2.63;;
3653;SDS011;70277;54.302;10.064;2023-07-22T04:14:12;4.57;;;2.47;;
3653;SDS011;70277;54.302;10.064;2023-07-22T04:16:39;5.72;;;2.55;;
3653;SDS011;70277;54.302;10.064;2023-07-22T04:19:05;8.52;;;3.08;;
3653;SDS011;70277;54.302;10.064;2023-07-22T04:21:32;4.30;;;2.67;;
3653;SDS011;70277;54.302;10.064;2023-07-22T04:23:58;3.28;;;2.35;;
3653;SDS011;70277;54.302;10.064;2023-07-22T04:26:25;6.68;;;2.78;;
3653;SDS011;70277;54.302;10.064;2023-07-22T04:28:52;8.23;;;3.75;;
3653;SDS011;70277;54.302;10.064;2023-07-22T04:31:18;7.30;;;3.58;;
3653;SDS011;70277;54.302;10.064;2023-07-22T04:33:45;3.33;;;2.50;;
3653;SDS011;70277;54.302;10.064;2023-07-22T04:36:11;4.30;;;2.80;;
3653;SDS011;70277;54.302;10.064;2023-07-22T04:38:38;3.40;;;2.53;;
3653;SDS011;70277;54.302;10.064;2023-07-22T04:41:05;6.20;;;2.50;;
3653;SDS011;70277;54.302;10.064;2023-07-22T04:43:31;7.63;;;2.97;;
3653;SDS011;70277;54.302;10.064;2023-07-22T04:45:58;7.25;;;2.88;;
3653;SDS011;70277;54.302;10.064;2023-07-22T04:48:25;4.95;;;2.75;;
3653;SDS011;70277;54.302;10.064;2023-07-22T04:50:52;4.07;;;2.50;;
3653;SDS011;70277;54.302;10.064;2023-07-22T04:53:18;5.22;;;2.33;;
3653;SDS011;70277;54.302;10.064;2023-07-22T04:55:45;9.73;;;3.05;;
3653;SDS011;70277;54.302;10.064;2023-07-22T04:58:12;6.07;;;2.55;;
3653;SDS011;70277;54.302;10.064;2023-07-22T05:00:38;7.20;;;2.70;;
3653;SDS011;70277;54.302;10.064;2023-07-22T05:03:05;3.30;;;2.38;;
3653;SDS011;70277;54.302;10.064;2023-07-22T05:05:32;4.68;;;2.47;;
3653;SDS011;70277;54.302;10.064;2023-07-22T05:07:58;5.90;;;2.30;;
3653;SDS011;70277;54.302;10.064;2023-07-22T05:10:25;3.42;;;2.38;;
3653;SDS011;70277;54.302;10.064;2023-07-22T05:12:51;3.78;;;2.38;;
3653;SDS011;70277;54.302;10.064;2023-07-22T05:15:18;6.85;;;2.20;;
3653;SDS011;70277;54.302;10.064;2023-07-22T05:17:44;3.22;;;1.95;;
3653;SDS011;70277;54.302;10.064;2023-07-22T05:20:11;15.63;;;2.58;;
3653;SDS011;70277;54.302;10.064;2023-07-22T05:22:39;4.60;;;1.90;;
3653;SDS011;70277;54.302;10.064;2023-07-22T05:25:06;3.13;;;2.25;;
3653;SDS011;70277;54.302;10.064;2023-07-22T05:27:33;5.00;;;2.30;;
3653;SDS011;70277;54.302;10.064;2023-07-22T05:30:00;2.40;;;2.13;;
3653;SDS011;70277;54.302;10.064;2023-07-22T05:32:29;4.47;;;2.10;;
3653;SDS011;70277;54.302;10.064;2023-07-22T05:34:59;3.85;;;2.00;;
3653;SDS011;70277;54.302;10.064;2023-07-22T05:37:27;5.90;;;2.10;;
3653;SDS011;70277;54.302;10.064;2023-07-22T05:39:54;3.72;;;1.75;;
3653;SDS011;70277;54.302;10.064;2023-07-22T05:42:20;1.77;;;1.55;;
3653;SDS011;70277;54.302;10.064;2023-07-22T05:44:47;2.90;;;1.80;;
3653;SDS011;70277;54.302;10.064;2023-07-22T05:47:14;3.35;;;1.67;;
3653;SDS011;70277;54.302;10.064;2023-07-22T05:49:44;1.47;;;1.37;;
3653;SDS011;70277;54.302;10.064;2023-07-22T05:52:10;3.50;;;1.55;;
3653;SDS011;70277;54.302;10.064;2023-07-22T05:54:37;2.92;;;1.63;;
3653;SDS011;70277;54.302;10.064;2023-07-22T05:57:03;2.00;;;1.60;;
3653;SDS011;70277;54.302;10.064;2023-07-22T05:59:30;4.80;;;1.48;;
3653;SDS011;70277;54.302;10.064;2023-07-22T06:01:57;4.43;;;1.75;;
3653;SDS011;70277;54.302;10.064;2023-07-22T06:04:24;1.83;;;1.30;;
3653;SDS011;70277;54.302;10.064;2023-07-22T06:06:50;1.35;;;1.20;;
3653;SDS011;70277;54.302;10.064;2023-07-22T06:09:17;3.50;;;1.40;;
3653;SDS011;70277;54.302;10.064;2023-07-22T06:11:43;1.58;;;1.30;;
3653;SDS011;70277;54.302;10.064;2023-07-22T06:14:10;1.48;;;1.10;;
3653;SDS011;70277;54.302;10.064;2023-07-22T06:16:36;1.85;;;1.15;;
3653;SDS011;70277;54.302;10.064;2023-07-22T06:19:03;4.50;;;1.40;;
3653;SDS011;70277;54.302;10.064;2023-07-22T06:21:30;2.00;;;1.30;;
3653;SDS011;70277;54.302;10.064;2023-07-22T06:23:56;1.95;;;1.15;;
3653;SDS011;70277;54.302;10.064;2023-07-22T06:26:23;5.50;;;1.20;;
3653;SDS011;70277;54.302;10.064;2023-07-22T06:28:49;1.30;;;1.20;;
3653;SDS011;70277;54.302;10.064;2023-07-22T06:31:16;2.13;;;1.40;;
3653;SDS011;70277;54.302;10.064;2023-07-22T06:33:44;3.67;;;1.45;;
3653;SDS011;70277;54.302;10.064;2023-07-22T06:36:11;3.20;;;1.70;;
3653;SDS011;70277;54.302;10.064;2023-07-22T06:38:37;2.92;;;1.17;;
3653;SDS011;70277;54.302;10.064;2023-07-22T06:41:03;1.08;;;1.08;;
3653;SDS011;70277;54.302;10.064;2023-07-22T06:43:30;2.55;;;1.38;;
3653;SDS011;70277;54.302;10.064;2023-07-22T06:45:56;3.17;;;1.35;;
3653;SDS011;70277;54.302;10.064;2023-07-22T06:48:23;3.60;;;1.00;;
3653;SDS011;70277;54.302;10.064;2023-07-22T06:50:49;1.95;;;1.20;;
3653;SDS011;70277;54.302;10.064;2023-07-22T06:53:16;6.95;;;1.55;;
3653;SDS011;70277;54.302;10.064;2023-07-22T06:55:49;1.05;;;0.90;;
3653;SDS011;70277;54.302;10.064;2023-07-22T06:58:19;1.83;;;0.93;;
3653;SDS011;70277;54.302;10.064;2023-07-22T07:00:46;1.00;;;1.00;;
3653;SDS011;70277;54.302;10.064;2023-07-22T07:03:12;2.15;;;1.17;;
3653;SDS011;70277;54.302;10.064;2023-07-22T07:05:39;1.90;;;1.20;;
3653;SDS011;70277;54.302;10.064;2023-07-22T07:08:08;1.70;;;1.17;;
3653;SDS011;70277;54.302;10.064;2023-07-22T07:10:38;3.00;;;1.38;;
3653;SDS011;70277;54.302;10.064;2023-07-22T07:13:07;3.67;;;1.30;;
3653;SDS011;70277;54.302;10.064;2023-07-22T07:15:35;4.90;;;1.20;;
3653;SDS011;70277;54.302;10.064;2023-07-22T07:18:02;1.52;;;1.33;;
3653;SDS011;70277;54.302;10.064;2023-07-22T07:20:28;2.28;;;1.30;;
3653;SDS011;70277;54.302;10.064;2023-07-22T07:22:54;3.63;;;1.40;;
3653;SDS011;70277;54.302;10.064;2023-07-22T07:25:21;1.05;;;0.82;;
3653;SDS011;70277;54.302;10.064;2023-07-22T07:27:48;1.38;;;1.13;;
3653;SDS011;70277;54.302;10.064;2023-07-22T07:30:14;2.90;;;0.88;;
3653;SDS011;70277;54.302;10.064;2023-07-22T07:32:41;4.22;;;1.08;;
3653;SDS011;70277;54.302;10.064;2023-07-22T07:35:07;3.85;;;1.20;;
3653;SDS011;70277;54.302;10.064;2023-07-22T07:37:34;3.03;;;1.08;;
3653;SDS011;70277;54.302;10.064;2023-07-22T07:40:01;3.65;;;1.50;;
3653;SDS011;70277;54.302;10.064;2023-07-22T07:42:27;3.35;;;1.40;;
3653;SDS011;70277;54.302;10.064;2023-07-22T07:44:54;3.03;;;1.00;;
3653;SDS011;70277;54.302;10.064;2023-07-22T07:47:21;2.47;;;0.73;;
3653;SDS011;70277;54.302;10.064;2023-07-22T07:49:47;3.22;;;1.30;;
3653;SDS011;70277;54.302;10.064;2023-07-22T07:52:14;2.63;;;1.10;;
3653;SDS011;70277;54.302;10.064;2023-07-22T07:54:40;2.78;;;1.15;;
3653;SDS011;70277;54.302;10.064;2023-07-22T07:57:07;3.20;;;1.25;;
3653;SDS011;70277;54.302;10.064;2023-07-22T07:59:33;3.35;;;1.00;;
3653;SDS011;70277;54.302;10.064;2023-07-22T08:02:02;2.50;;;1.00;;
3653;SDS011;70277;54.302;10.064;2023-07-22T08:04:35;3.70;;;0.85;;
3653;SDS011;70277;54.302;10.064;2023-07-22T08:07:01;4.03;;;0.88;;
3653;SDS011;70277;54.302;10.064;2023-07-22T08:09:30;3.55;;;0.82;;
3653;SDS011;70277;54.302;10.064;2023-07-22T08:11:57;1.33;;;0.93;;
3653;SDS011;70277;54.302;10.064;2023-07-22T08:14:23;3.85;;;1.00;;
3653;SDS011;70277;54.302;10.064;2023-07-22T08:16:50;1.10;;;0.70;;
3653;SDS011;70277;54.302;10.064;2023-07-22T08:19:16;3.08;;;1.08;;
3653;SDS011;70277;54.302;10.064;2023-07-22T08:21:43;2.28;;;0.80;;
3653;SDS011;70277;54.302;10.064;2023-07-22T08:24:09;2.30;;;0.80;;
3653;SDS011;70277;54.302;10.064;2023-07-22T08:26:36;2.13;;;0.85;;
3653;SDS011;70277;54.302;10.064;2023-07-22T08:29:02;4.25;;;1.02;;
3653;SDS011;70277;54.302;10.064;2023-07-22T08:31:29;4.68;;;1.00;;
3653;SDS011;70277;54.302;10.064;2023-07-22T08:33:56;1.65;;;1.05;;
3653;SDS011;70277;54.302;10.064;2023-07-22T08:36:23;5.57;;;1.08;;
3653;SDS011;70277;54.302;10.064;2023-07-22T08:38:49;3.47;;;1.10;;
3653;SDS011;70277;54.302;10.064;2023-07-22T08:41:16;2.63;;;0.90;;
3653;SDS011;70277;54.302;10.064;2023-07-22T08:43:42;1.30;;;0.90;;
3653;SDS011;70277;54.302;10.064;2023-07-22T08:46:12;6.20;;;0.77;;
3653;SDS011;70277;54.302;10.064;2023-07-22T08:48:39;8.05;;;0.75;;
3653;SDS011;70277;54.302;10.064;2023-07-22T08:51:12;4.82;;;0.80;;
3653;SDS011;70277;54.302;10.064;2023-07-22T08:53:43;2.60;;;0.90;;
3653;SDS011;70277;54.302;10.064;2023-07-22T08:56:18;1.83;;;0.80;;
3653;SDS011;70277;54.302;10.064;2023-07-22T08:58:45;1.95;;;0.70;;
3653;SDS011;70277;54.302;10.064;2023-07-22T09:01:12;5.45;;;0.98;;
3653;SDS011;70277;54.302;10.064;2023-07-22T09:03:39;0.80;;;0.80;;
3653;SDS011;70277;54.302;10.064;2023-07-22T09:06:07;5.25;;;1.15;;
3653;SDS011;70277;54.302;10.064;2023-07-22T09:08:33;1.33;;;0.95;;
3653;SDS011;70277;54.302;10.064;2023-07-22T09:11:00;1.83;;;0.80;;
3653;SDS011;70277;54.302;10.064;2023-07-22T09:13:27;1.83;;;1.00;;
3653;SDS011;70277;54.302;10.064;2023-07-22T09:15:56;2.05;;;1.23;;
3653;SDS011;70277;54.302;10.064;2023-07-22T09:18:24;2.20;;;0.88;;
3653;SDS011;70277;54.302;10.064;2023-07-22T09:20:52;3.13;;;1.00;;
3653;SDS011;70277;54.302;10.064;2023-07-22T09:23:31;2.10;;;0.80;;
3653;SDS011;70277;54.302;10.064;2023-07-22T09:26:17;4.03;;;1.00;;
3653;SDS011;70277;54.302;10.064;2023-07-22T09:28:54;0.80;;;0.80;;
3653;SDS011;70277;54.302;10.064;2023-07-22T09:31:22;2.75;;;1.30;;
3653;SDS011;70277;54.302;10.064;2023-07-22T09:33:52;2.88;;;0.85;;
3653;SDS011;70277;54.302;10.064;2023-07-22T09:36:22;4.75;;;1.10;;
3653;SDS011;70277;54.302;10.064;2023-07-22T09:39:01;2.28;;;0.70;;
3653;SDS011;70277;54.302;10.064;2023-07-22T09:41:30;1.58;;;0.90;;
3653;SDS011;70277;54.302;10.064;2023-07-22T09:43:57;2.50;;;0.90;;
3653;SDS011;70277;54.302;10.064;2023-07-22T09:46:25;2.20;;;0.90;;
3653;SDS011;70277;54.302;10.064;2023-07-22T09:49:01;1.85;;;0.80;;
3653;SDS011;70277;54.302;10.064;2023-07-22T09:51:32;2.25;;;1.27;;
3653;SDS011;70277;54.302;10.064;2023-07-22T09:54:08;1.53;;;0.70;;
3653;SDS011;70277;54.302;10.064;2023-07-22T09:56:48;3.60;;;0.80;;
3653;SDS011;70277;54.302;10.064;2023-07-22T09:59:18;2.10;;;1.02;;
3653;SDS011;70277;54.302;10.064;2023-07-22T10:01:46;1.42;;;0.93;;
3653;SDS011;70277;54.302;10.064;2023-07-22T10:04:16;2.92;;;0.80;;
3653;SDS011;70277;54.302;10.064;2023-07-22T10:06:42;1.77;;;1.10;;
3653;SDS011;70277;54.302;10.064;2023-07-22T10:09:10;1.90;;;0.98;;
3653;SDS011;70277;54.302;10.064;2023-07-22T10:11:38;3.50;;;1.10;;
3653;SDS011;70277;54.302;10.064;2023-07-22T10:14:05;4.20;;;1.20;;
3653;SDS011;70277;54.302;10.064;2023-07-22T10:16:33;3.33;;;0.90;;
3653;SDS011;70277;54.302;10.064;2023-07-22T10:18:59;1.67;;;1.00;;
3653;SDS011;70277;54.302;10.064;2023-07-22T10:21:26;1.75;;;0.88;;
3653;SDS011;70277;54.302;10.064;2023-07-22T10:23:56;5.65;;;1.30;;
3653;SDS011;70277;54.302;10.064;2023-07-22T10:26:23;4.50;;;1.17;;
3653;SDS011;70277;54.302;10.064;2023-07-22T10:29:10;1.08;;;0.70;;
3653;SDS011;70277;54.302;10.064;2023-07-22T10:31:38;1.42;;;0.75;;
3653;SDS011;70277;54.302;10.064;2023-07-22T10:34:05;1.75;;;0.85;;
3653;SDS011;70277;54.302;10.064;2023-07-22T10:36:31;2.13;;;1.15;;
3653;SDS011;70277;54.302;10.064;2023-07-22T10:38:58;1.55;;;0.95;;
3653;SDS011;70277;54.302;10.064;2023-07-22T10:41:29;2.65;;;1.20;;
3653;SDS011;70277;54.302;10.064;2023-07-22T10:43:57;1.67;;;1.20;;
3653;SDS011;70277;54.302;10.064;2023-07-22T10:46:32;1.95;;;1.00;;
3653;SDS011;70277;54.302;10.064;2023-07-22T10:49:12;1.38;;;1.10;;
3653;SDS011;70277;54.302;10.064;2023-07-22T10:51:48;3.13;;;1.20;;
3653;SDS011;70277;54.302;10.064;2023-07-22T10:54:31;2.55;;;1.10;;
3653;SDS011;70277;54.302;10.064;2023-07-22T10:59:47;3.67;;;1.10;;
3653;SDS011;70277;54.302;10.064;2023-07-22T11:02:25;2.58;;;1.23;;
3653;SDS011;70277;54.302;10.064;2023-07-22T11:04:55;3.25;;;1.17;;
3653;SDS011;70277;54.302;10.064;2023-07-22T11:07:32;1.73;;;1.08;;
3653;SDS011;70277;54.302;10.064;2023-07-22T11:10:10;3.33;;;1.10;;
3653;SDS011;70277;54.302;10.064;2023-07-22T11:12:39;2.03;;;1.08;;
3653;SDS011;70277;54.302;10.064;2023-07-22T11:15:09;1.23;;;1.10;;
3653;SDS011;70277;54.302;10.064;2023-07-22T11:17:37;2.72;;;1.02;;
3653;SDS011;70277;54.302;10.064;2023-07-22T11:20:04;0.90;;;0.90;;
3653;SDS011;70277;54.302;10.064;2023-07-22T11:22:30;1.50;;;0.98;;
3653;SDS011;70277;54.302;10.064;2023-07-22T11:24:57;3.55;;;1.00;;
3653;SDS011;70277;54.302;10.064;2023-07-22T11:27:26;12.55;;;2.17;;
3653;SDS011;70277;54.302;10.064;2023-07-22T11:29:57;3.40;;;1.20;;
3653;SDS011;70277;54.302;10.064;2023-07-22T11:32:24;2.30;;;1.27;;
3653;SDS011;70277;54.302;10.064;2023-07-22T11:34:51;2.05;;;1.40;;
3653;SDS011;70277;54.302;10.064;2023-07-22T11:37:19;5.03;;;0.90;;
3653;SDS011;70277;54.302;10.064;2023-07-22T11:39:46;2.72;;;1.08;;
3653;SDS011;70277;54.302;10.064;2023-07-22T11:42:12;4.63;;;1.50;;
3653;SDS011;70277;54.302;10.064;2023-07-22T11:44:39;5.30;;;1.40;;
3653;SDS011;70277;54.302;10.064;2023-07-22T11:47:06;2.35;;;1.17;;
3653;SDS011;70277;54.302;10.064;2023-07-22T11:49:37;3.40;;;1.30;;
3653;SDS011;70277;54.302;10.064;2023-07-22T11:52:05;2.85;;;1.42;;
3653;SDS011;70277;54.302;10.064;2023-07-22T11:54:34;4.20;;;1.35;;
3653;SDS011;70277;54.302;10.064;2023-07-22T11:59:45;2.58;;;1.40;;
3653;SDS011;70277;54.302;10.064;2023-07-22T12:02:17;5.03;;;1.30;;
3653;SDS011;70277;54.302;10.064;2023-07-22T12:04:59;2.83;;;1.05;;
3653;SDS011;70277;54.302;10.064;2023-07-22T12:07:28;3.85;;;1.23;;
3653;SDS011;70277;54.302;10.064;2023-07-22T12:09:56;1.85;;;1.30;;
3653;SDS011;70277;54.302;10.064;2023-07-22T12:12:33;3.08;;;1.45;;
3653;SDS011;70277;54.302;10.064;2023-07-22T12:20:16;1.08;;;1.05;;
3653;SDS011;70277;54.302;10.064;2023-07-22T12:22:43;2.22;;;1.30;;
3653;SDS011;70277;54.302;10.064;2023-07-22T12:25:10;4.55;;;1.50;;
3653;SDS011;70277;54.302;10.064;2023-07-22T12:27:37;1.65;;;1.20;;
3653;SDS011;70277;54.302;10.064;2023-07-22T12:30:04;2.17;;;1.10;;
3653;SDS011;70277;54.302;10.064;2023-07-22T12:32:33;3.38;;;1.20;;
3653;SDS011;70277;54.302;10.064;2023-07-22T12:34:59;2.53;;;1.27;;
3653;SDS011;70277;54.302;10.064;2023-07-22T12:37:26;2.00;;;1.30;;
3653;SDS011;70277;54.302;10.064;2023-07-22T12:39:52;3.05;;;1.15;;
3653;SDS011;70277;54.302;10.064;2023-07-22T12:42:19;3.63;;;1.45;;
3653;SDS011;70277;54.302;10.064;2023-07-22T12:44:45;2.50;;;1.35;;
3653;SDS011;70277;54.302;10.064;2023-07-22T12:47:12;1.25;;;1.00;;
3653;SDS011;70277;54.302;10.064;2023-07-22T12:49:38;2.08;;;1.08;;
3653;SDS011;70277;54.302;10.064;2023-07-22T12:52:05;2.30;;;1.30;;
3653;SDS011;70277;54.302;10.064;2023-07-22T12:54:35;1.63;;;1.30;;
3653;SDS011;70277;54.302;10.064;2023-07-22T12:57:02;1.90;;;1.00;;
3653;SDS011;70277;54.302;10.064;2023-07-22T12:59:28;4.18;;;1.20;;
3653;SDS011;70277;54.302;10.064;2023-07-22T13:01:55;1.48;;;1.30;;
3653;SDS011;70277;54.302;10.064;2023-07-22T13:04:24;1.90;;;1.13;;
3653;SDS011;70277;54.302;10.064;2023-07-22T13:06:51;1.50;;;1.30;;
3653;SDS011;70277;54.302;10.064;2023-07-22T13:09:20;2.00;;;1.10;;
3653;SDS011;70277;54.302;10.064;2023-07-22T13:11:47;1.00;;;0.90;;
3653;SDS011;70277;54.302;10.064;2023-07-22T13:14:14;2.55;;;1.30;;
3653;SDS011;70277;54.302;10.064;2023-07-22T13:16:43;1.70;;;1.40;;
3653;SDS011;70277;54.302;10.064;2023-07-22T13:19:10;2.08;;;1.10;;
3653;SDS011;70277;54.302;10.064;2023-07-22T13:21:36;3.25;;;1.10;;
3653;SDS011;70277;54.302;10.064;2023-07-22T13:24:03;2.53;;;1.10;;
3653;SDS011;70277;54.302;10.064;2023-07-22T13:26:29;1.63;;;1.20;;
3653;SDS011;70277;54.302;10.064;2023-07-22T13:28:56;3.00;;;1.10;;
3653;SDS011;70277;54.302;10.064;2023-07-22T13:31:22;1.98;;;1.23;;
3653;SDS011;70277;54.302;10.064;2023-07-22T13:33:49;3.05;;;1.25;;
3653;SDS011;70277;54.302;10.064;2023-07-22T13:36:16;1.30;;;1.20;;
3653;SDS011;70277;54.302;10.064;2023-07-22T13:38:42;3.85;;;1.35;;
3653;SDS011;70277;54.302;10.064;2023-07-22T13:41:08;1.40;;;1.30;;
3653;SDS011;70277;54.302;10.064;2023-07-22T13:43:35;2.63;;;1.80;;
3653;SDS011;70277;54.302;10.064;2023-07-22T13:46:01;3.03;;;1.50;;
3653;SDS011;70277;54.302;10.064;2023-07-22T13:48:28;3.47;;;1.70;;
3653;SDS011;70277;54.302;10.064;2023-07-22T13:50:54;3.47;;;1.70;;
3653;SDS011;70277;54.302;10.064;2023-07-22T13:53:21;2.45;;;1.88;;
3653;SDS011;70277;54.302;10.064;2023-07-22T13:55:47;5.03;;;2.42;;
3653;SDS011;70277;54.302;10.064;2023-07-22T13:58:18;4.47;;;2.60;;
3653;SDS011;70277;54.302;10.064;2023-07-22T14:00:44;8.57;;;3.00;;
3653;SDS011;70277;54.302;10.064;2023-07-22T14:03:11;4.93;;;2.70;;
3653;SDS011;70277;54.302;10.064;2023-07-22T14:05:37;12.98;;;2.92;;
3653;SDS011;70277;54.302;10.064;2023-07-22T14:08:04;6.45;;;3.03;;
3653;SDS011;70277;54.302;10.064;2023-07-22T14:10:30;9.57;;;4.30;;
3653;SDS011;70277;54.302;10.064;2023-07-22T14:12:57;7.95;;;4.55;;
3653;SDS011;70277;54.302;10.064;2023-07-22T14:15:23;6.40;;;4.25;;
3653;SDS011;70277;54.302;10.064;2023-07-22T14:17:50;7.97;;;4.28;;
3653;SDS011;70277;54.302;10.064;2023-07-22T14:20:16;8.65;;;4.35;;
3653;SDS011;70277;54.302;10.064;2023-07-22T14:22:42;5.75;;;4.18;;
3653;SDS011;70277;54.302;10.064;2023-07-22T14:25:09;9.38;;;4.65;;
3653;SDS011;70277;54.302;10.064;2023-07-22T14:27:38;7.38;;;4.80;;
3653;SDS011;70277;54.302;10.064;2023-07-22T14:30:05;7.63;;;4.28;;
3653;SDS011;70277;54.302;10.064;2023-07-22T14:32:32;8.18;;;4.28;;
3653;SDS011;70277;54.302;10.064;2023-07-22T14:34:59;5.88;;;4.25;;
3653;SDS011;70277;54.302;10.064;2023-07-22T14:37:25;6.20;;;4.40;;
3653;SDS011;70277;54.302;10.064;2023-07-22T14:39:52;7.65;;;4.95;;
3653;SDS011;70277;54.302;10.064;2023-07-22T14:42:19;6.90;;;4.47;;
3653;SDS011;70277;54.302;10.064;2023-07-22T14:44:45;8.07;;;4.93;;
3653;SDS011;70277;54.302;10.064;2023-07-22T14:47:12;8.00;;;4.75;;
3653;SDS011;70277;54.302;10.064;2023-07-22T14:49:38;6.35;;;4.40;;
3653;SDS011;70277;54.302;10.064;2023-07-22T14:52:05;5.88;;;4.38;;
3653;SDS011;70277;54.302;10.064;2023-07-22T14:54:32;7.32;;;4.30;;
3653;SDS011;70277;54.302;10.064;2023-07-22T14:56:59;8.05;;;4.60;;
3653;SDS011;70277;54.302;10.064;2023-07-22T14:59:25;6.25;;;4.20;;